| time (UTC) | temp C | wind direction | speed KPH | gust KPH | rain 1hr cm | rain 24hr cm | rain mn cm | humidity % | barometer mb |
| 20260509002436 | 21 | 283 | 12.9 | 17.7 | 0.00 | 0.00 | 0.00 | 71 | 1012.9 |
| 20260509001916 | 21 | 283 | 6.4 | 9.7 | 0.00 | 0.00 | 0.00 | 71 | 1012.9 |
| 20260509001415 | 21 | 260 | 12.9 | 17.7 | 0.00 | 0.00 | 0.00 | 70 | 1013.0 |
| 20260509000915 | 21 | 260 | 9.7 | 12.9 | 0.00 | 0.00 | 0.00 | 70 | 1013.0 |
| 20260509000418 | 21 | 305 | 8.0 | 14.5 | 0.00 | 0.00 | 0.00 | 70 | 1013.0 |
| 20260508235915 | 21 | 305 | 6.4 | 9.7 | 0.00 | 0.00 | 0.00 | 69 | 1013.0 |
| 20260508235415 | 22 | 283 | 8.0 | 12.9 | 0.00 | 0.00 | 0.00 | 69 | 1013.0 |
| 20260508234916 | 22 | 260 | 8.0 | 11.3 | 0.00 | 0.00 | 0.00 | 67 | 1013.0 |
| 20260508234415 | 22 | 305 | 6.4 | 11.3 | 0.00 | 0.00 | 0.00 | 68 | 1013.0 |
| 20260508233916 | 22 | 305 | 6.4 | 12.9 | 0.00 | 0.00 | 0.00 | 67 | 1013.0 |
| 20260508233416 | 22 | 283 | 8.0 | 14.5 | 0.00 | 0.00 | 0.00 | 67 | 1013.0 |
| 20260508232916 | 22 | 305 | 6.4 | 12.9 | 0.00 | 0.00 | 0.00 | 67 | 1013.0 |
| 20260508232415 | 22 | 260 | 8.0 | 12.9 | 0.00 | 0.00 | 0.00 | 66 | 1013.0 |
| 20260508231915 | 22 | 283 | 9.7 | 11.3 | 0.00 | 0.00 | 0.00 | 66 | 1013.1 |
| 20260508231416 | 22 | 260 | 11.3 | 14.5 | 0.00 | 0.00 | 0.00 | 66 | 1013.2 |
| 20260508230935 | 22 | 283 | 8.0 | 12.9 | 0.00 | 0.00 | 0.00 | 66 | 1013.2 |
| 20260508230415 | 22 | 283 | 9.7 | 14.5 | 0.00 | 0.00 | 0.00 | 65 | 1013.3 |
| 20260508225916 | 23 | 260 | 6.4 | 9.7 | 0.00 | 0.00 | 0.00 | 65 | 1013.3 |
| 20260508225416 | 23 | 260 | 4.8 | 8.0 | 0.00 | 0.00 | 0.00 | 65 | 1013.3 |
| 20260508224935 | 23 | 148 | 6.4 | 11.3 | 0.00 | 0.00 | 0.00 | 65 | 1013.3 |
| 20260508224416 | 23 | 260 | 9.7 | 14.5 | 0.00 | 0.00 | 0.00 | 64 | 1013.5 |
| 20260508223915 | 23 | 170 | 4.8 | 9.7 | 0.00 | 0.00 | 0.00 | 64 | 1013.5 |
| 20260508223435 | 23 | 80 | 3.2 | 6.4 | 0.00 | 0.00 | 0.00 | 66 | 1013.6 |
| 20260508222915 | 22 | 170 | 8.0 | 12.9 | 0.00 | 0.00 | 0.00 | 65 | 1013.7 |
| 20260508222435 | 22 | 170 | 3.2 | 9.7 | 0.00 | 0.00 | 0.00 | 65 | 1013.8 |
| 20260508221915 | 22 | 170 | 4.8 | 8.0 | 0.00 | 0.00 | 0.00 | 65 | 1013.8 |
| 20260508221415 | 22 | 170 | 3.2 | 8.0 | 0.00 | 0.00 | 0.00 | 67 | 1013.9 |
| 20260508220920 | 22 | 170 | 6.4 | 9.7 | 0.00 | 0.00 | 0.00 | 66 | 1014.0 |
| 20260508220436 | 22 | 193 | 8.0 | 12.9 | 0.00 | 0.00 | 0.00 | 66 | 1014.1 |
| 20260508215915 | 22 | 148 | 6.4 | 12.9 | 0.00 | 0.00 | 0.00 | 67 | 1014.2 |
| 20260508215415 | 22 | 170 | 8.0 | 9.7 | 0.00 | 0.00 | 0.00 | 66 | 1014.3 |
| 20260508214915 | 22 | 148 | 8.0 | 14.5 | 0.00 | 0.00 | 0.00 | 67 | 1014.3 |
| 20260508214415 | 22 | 215 | 6.4 | 12.9 | 0.00 | 0.00 | 0.00 | 67 | 1014.3 |
| 20260508213915 | 22 | 260 | 4.8 | 12.9 | 0.00 | 0.00 | 0.00 | 67 | 1014.3 |
| 20260508213415 | 22 | 148 | 8.0 | 9.7 | 0.00 | 0.00 | 0.00 | 66 | 1014.4 |
| 20260508212915 | 22 | 260 | 4.8 | 8.0 | 0.00 | 0.00 | 0.00 | 66 | 1014.4 |
| 20260508212435 | 22 | 170 | 4.8 | 8.0 | 0.00 | 0.00 | 0.00 | 66 | 1014.4 |
| 20260508211915 | 22 | 238 | 6.4 | 11.3 | 0.00 | 0.00 | 0.00 | 66 | 1014.4 |
| 20260508211415 | 22 | 170 | 6.4 | 9.7 | 0.00 | 0.00 | 0.00 | 67 | 1014.5 |
| 20260508210915 | 22 | 215 | 4.8 | 8.0 | 0.00 | 0.00 | 0.00 | 67 | 1014.6 |
| 20260508210415 | 22 | 238 | 4.8 | 8.0 | 0.00 | 0.00 | 0.00 | 68 | 1014.6 |
| 20260508205915 | 22 | 283 | 8.0 | 11.3 | 0.00 | 0.00 | 0.00 | 66 | 1014.7 |
| 20260508205415 | 22 | 238 | 6.4 | 11.3 | 0.00 | 0.00 | 0.00 | 68 | 1014.7 |
| 20260508204917 | 22 | 148 | 3.2 | 8.0 | 0.00 | 0.00 | 0.00 | 67 | 1014.7 |
| 20260508204435 | 22 | 238 | 6.4 | 9.7 | 0.00 | 0.00 | 0.00 | 67 | 1014.7 |
| 20260508203917 | 22 | 260 | 6.4 | 11.3 | 0.00 | 0.00 | 0.00 | 68 | 1014.8 |
| 20260508203417 | 22 | 148 | 4.8 | 8.0 | 0.00 | 0.00 | 0.00 | 69 | 1014.9 |
| 20260508202917 | 22 | 148 | 4.8 | 8.0 | 0.00 | 0.00 | 0.00 | 68 | 1015.0 |
| 20260508202415 | 22 | 125 | 3.2 | 4.8 | 0.00 | 0.00 | 0.00 | 68 | 1015.0 |
| 20260508201917 | 22 | 238 | 9.7 | 17.7 | 0.00 | 0.00 | 0.00 | 68 | 1015.0 |
| 20260508201417 | 21 | 170 | 3.2 | 6.4 | 0.00 | 0.00 | 0.00 | 70 | 1015.1 |
| 20260508200917 | 21 | 215 | 6.4 | 9.7 | 0.00 | 0.00 | 0.00 | 71 | 1015.2 |
| 20260508200417 | 21 | 148 | 3.2 | 4.8 | 0.00 | 0.00 | 0.00 | 71 | 1015.3 |
| 20260508195917 | 21 | 148 | 6.4 | 11.3 | 0.00 | 0.00 | 0.00 | 72 | 1015.4 |
| 20260508195418 | 21 | 170 | 3.2 | 6.4 | 0.00 | 0.00 | 0.00 | 72 | 1015.4 |
| 20260508194917 | 20 | 35 | 1.6 | 3.2 | 0.00 | 0.00 | 0.00 | 73 | 1015.4 |
| 20260508194417 | 20 | 283 | 6.4 | 9.7 | 0.00 | 0.00 | 0.00 | 73 | 1015.4 |
| 20260508193916 | 20 | 283 | 4.8 | 6.4 | 0.00 | 0.00 | 0.00 | 74 | 1015.4 |
| 20260508193437 | 20 | 260 | 1.6 | 3.2 | 0.00 | 0.00 | 0.00 | 73 | 1015.5 |
| 20260508192917 | 20 | 260 | 8.0 | 11.3 | 0.00 | 0.00 | 0.00 | 73 | 1015.7 |
| 20260508192437 | 20 | 283 | 3.2 | 6.4 | 0.00 | 0.00 | 0.00 | 75 | 1015.6 |
| 20260508191917 | 20 | 260 | 6.4 | 9.7 | 0.00 | 0.00 | 0.00 | 74 | 1015.7 |
| 20260508191417 | 20 | 0.0 | 1.6 | 0.00 | 0.00 | 0.00 | 75 | 1015.8 | |
| 20260508190917 | 20 | 58 | 3.2 | 3.2 | 0.00 | 0.00 | 0.00 | 75 | 1015.7 |
| 20260508190417 | 20 | 0.0 | 1.6 | 0.00 | 0.00 | 0.00 | 76 | 1015.9 | |
| 20260508185917 | 20 | 260 | 6.4 | 9.7 | 0.00 | 0.00 | 0.00 | 75 | 1016.0 |
| 20260508185417 | 20 | 238 | 3.2 | 4.8 | 0.00 | 0.00 | 0.00 | 75 | 1016.0 |
| 20260508184917 | 20 | 283 | 3.2 | 4.8 | 0.00 | 0.00 | 0.00 | 76 | 1016.0 |
| 20260508184417 | 19 | 283 | 3.2 | 4.8 | 0.00 | 0.00 | 0.00 | 77 | 1016.1 |
| 20260508183937 | 19 | 0.0 | 1.6 | 0.00 | 0.00 | 0.00 | 78 | 1016.1 | |
| 20260508183417 | 18 | 58 | 3.2 | 4.8 | 0.00 | 0.00 | 0.00 | 78 | 1016.2 |
| 20260508182917 | 18 | 0.0 | 1.6 | 0.00 | 0.00 | 0.00 | 79 | 1016.2 | |
| 20260508182417 | 18 | 148 | 4.8 | 6.4 | 0.00 | 0.00 | 0.00 | 80 | 1016.2 |
| 20260508181917 | 18 | 0.0 | 1.6 | 0.00 | 0.00 | 0.00 | 80 | 1016.2 | |
| 20260508181437 | 18 | 260 | 1.6 | 3.2 | 0.00 | 0.00 | 0.00 | 80 | 1016.2 |
| 20260508180917 | 18 | 0.0 | 0.0 | 0.00 | 0.00 | 0.00 | 81 | 1016.2 | |
| 20260508180417 | 18 | 125 | 3.2 | 6.4 | 0.00 | 0.00 | 0.00 | 81 | 1016.2 |
| 20260508175917 | 18 | 215 | 3.2 | 4.8 | 0.00 | 0.00 | 0.00 | 80 | 1016.3 |
| 20260508175417 | 18 | 148 | 3.2 | 6.4 | 0.00 | 0.00 | 0.00 | 81 | 1016.3 |
| 20260508174917 | 18 | 0.0 | 0.0 | 0.00 | 0.00 | 0.00 | 83 | 1016.3 | |
| 20260508174417 | 17 | 0.0 | 0.0 | 0.00 | 0.00 | 0.00 | 83 | 1016.4 | |
| 20260508173917 | 17 | 0.0 | 1.6 | 0.00 | 0.00 | 0.00 | 83 | 1016.4 | |
| 20260508173417 | 17 | 283 | 4.8 | 8.0 | 0.00 | 0.00 | 0.00 | 83 | 1016.5 |
| 20260508172917 | 17 | 283 | 1.6 | 3.2 | 0.00 | 0.00 | 0.00 | 82 | 1016.5 |
| 20260508172417 | 17 | 0.0 | 3.2 | 0.00 | 0.00 | 0.00 | 83 | 1016.6 | |
| 20260508171937 | 17 | 215 | 1.6 | 1.6 | 0.00 | 0.00 | 0.00 | 84 | 1016.5 |
| 20260508171417 | 17 | 125 | 1.6 | 4.8 | 0.00 | 0.00 | 0.00 | 83 | 1016.4 |
| 20260508170937 | 17 | 238 | 4.8 | 8.0 | 0.00 | 0.00 | 0.00 | 83 | 1016.4 |
| 20260508170417 | 17 | 0.0 | 3.2 | 0.00 | 0.00 | 0.00 | 84 | 1016.4 | |
| 20260508165917 | 17 | 148 | 1.6 | 3.2 | 0.00 | 0.00 | 0.00 | 84 | 1016.4 |
| 20260508165417 | 17 | 103 | 1.6 | 3.2 | 0.00 | 0.00 | 0.00 | 83 | 1016.4 |
| 20260508164917 | 17 | 0.0 | 0.0 | 0.00 | 0.00 | 0.00 | 84 | 1016.4 | |
| 20260508164417 | 17 | 148 | 3.2 | 4.8 | 0.00 | 0.00 | 0.00 | 84 | 1016.4 |
| 20260508163917 | 17 | 148 | 1.6 | 3.2 | 0.00 | 0.00 | 0.00 | 85 | 1016.4 |
| 20260508163417 | 17 | 0.0 | 0.0 | 0.00 | 0.00 | 0.00 | 85 | 1016.4 | |
| 20260508162917 | 17 | 148 | 1.6 | 1.6 | 0.00 | 0.00 | 0.00 | 86 | 1016.3 |
| 20260508162417 | 17 | 125 | 4.8 | 6.4 | 0.00 | 0.00 | 0.00 | 85 | 1016.4 |
| 20260508161917 | 17 | 125 | 3.2 | 4.8 | 0.00 | 0.00 | 0.00 | 85 | 1016.4 |
| 20260508161417 | 17 | 125 | 1.6 | 3.2 | 0.00 | 0.00 | 0.00 | 86 | 1016.4 |
| 20260508160936 | 16 | 0.0 | 1.6 | 0.00 | 0.00 | 0.00 | 86 | 1016.3 | |
| 20260508160417 | 16 | 125 | 3.2 | 3.2 | 0.00 | 0.00 | 0.00 | 86 | 1016.3 |
| 20260508155917 | 16 | 0.0 | 3.2 | 0.00 | 0.00 | 0.00 | 86 | 1016.3 | |
| 20260508155417 | 16 | 0.0 | 1.6 | 0.00 | 0.00 | 0.00 | 87 | 1016.3 | |
| 20260508154917 | 16 | 125 | 4.8 | 6.4 | 0.00 | 0.00 | 0.00 | 87 | 1016.3 |
| 20260508154417 | 16 | 148 | 3.2 | 4.8 | 0.00 | 0.00 | 0.00 | 86 | 1016.2 |
| 20260508153937 | 16 | 125 | 1.6 | 1.6 | 0.00 | 0.00 | 0.00 | 87 | 1016.2 |
| 20260508153417 | 16 | 148 | 4.8 | 4.8 | 0.00 | 0.00 | 0.00 | 87 | 1016.2 |
| 20260508152917 | 16 | 148 | 4.8 | 9.7 | 0.00 | 0.00 | 0.00 | 87 | 1016.3 |
| 20260508152417 | 16 | 125 | 1.6 | 4.8 | 0.00 | 0.00 | 0.00 | 87 | 1016.3 |
| 20260508151917 | 16 | 103 | 4.8 | 6.4 | 0.00 | 0.00 | 0.00 | 87 | 1016.4 |
| 20260508151417 | 16 | 103 | 3.2 | 4.8 | 0.00 | 0.00 | 0.00 | 87 | 1016.4 |
| 20260508150917 | 16 | 125 | 1.6 | 4.8 | 0.00 | 0.00 | 0.00 | 88 | 1016.4 |
| 20260508150417 | 16 | 125 | 1.6 | 1.6 | 0.00 | 0.00 | 0.00 | 88 | 1016.5 |
| 20260508145917 | 16 | 125 | 3.2 | 4.8 | 0.00 | 0.00 | 0.00 | 88 | 1016.5 |
| 20260508145417 | 16 | 125 | 1.6 | 1.6 | 0.00 | 0.00 | 0.00 | 87 | 1016.5 |
| 20260508144957 | 16 | 148 | 3.2 | 4.8 | 0.00 | 0.00 | 0.00 | 88 | 1016.4 |
| 20260508144416 | 16 | 0.0 | 0.0 | 0.00 | 0.00 | 0.00 | 88 | 1016.5 | |
| 20260508143917 | 16 | 103 | 1.6 | 3.2 | 0.00 | 0.00 | 0.00 | 88 | 1016.5 |
| 20260508143416 | 16 | 125 | 3.2 | 4.8 | 0.00 | 0.00 | 0.00 | 88 | 1016.4 |
| 20260508142916 | 16 | 125 | 1.6 | 3.2 | 0.00 | 0.00 | 0.00 | 89 | 1016.4 |
| 20260508142417 | 16 | 125 | 4.8 | 4.8 | 0.00 | 0.00 | 0.00 | 88 | 1016.4 |
| 20260508141916 | 16 | 125 | 1.6 | 3.2 | 0.00 | 0.00 | 0.00 | 89 | 1016.4 |
| 20260508141416 | 16 | 125 | 3.2 | 4.8 | 0.00 | 0.00 | 0.00 | 88 | 1016.3 |
| 20260508140917 | 16 | 148 | 4.8 | 8.0 | 0.00 | 0.00 | 0.00 | 89 | 1016.2 |
| 20260508140417 | 16 | 148 | 4.8 | 6.4 | 0.00 | 0.00 | 0.00 | 88 | 1016.2 |
| 20260508135916 | 16 | 148 | 3.2 | 4.8 | 0.00 | 0.00 | 0.00 | 89 | 1016.1 |
| 20260508135416 | 16 | 125 | 1.6 | 4.8 | 0.00 | 0.00 | 0.00 | 88 | 1016.2 |
| 20260508134916 | 16 | 125 | 3.2 | 4.8 | 0.00 | 0.00 | 0.00 | 89 | 1016.2 |
| 20260508134416 | 16 | 58 | 3.2 | 4.8 | 0.00 | 0.00 | 0.00 | 89 | 1016.1 |
| 20260508133916 | 16 | 148 | 1.6 | 3.2 | 0.00 | 0.00 | 0.00 | 89 | 1016.1 |
| 20260508133436 | 16 | 125 | 3.2 | 4.8 | 0.00 | 0.00 | 0.00 | 89 | 1016.2 |
| 20260508132936 | 16 | 0.0 | 0.0 | 0.00 | 0.00 | 0.00 | 89 | 1016.2 | |
| 20260508132616 | 16 | 170 | 1.6 | 3.2 | 0.00 | 0.00 | 0.00 | 89 | 1016.1 |
| 20260508132116 | 16 | 125 | 4.8 | 8.0 | 0.00 | 0.00 | 0.00 | 89 | 1016.1 |
| 20260508131616 | 16 | 148 | 1.6 | 1.6 | 0.00 | 0.00 | 0.00 | 89 | 1016.0 |
| 20260508131116 | 16 | 148 | 1.6 | 3.2 | 0.00 | 0.00 | 0.00 | 89 | 1015.9 |
| 20260508130636 | 16 | 125 | 8.0 | 12.9 | 0.00 | 0.00 | 0.00 | 89 | 1015.9 |
| 20260508130116 | 16 | 125 | 4.8 | 6.4 | 0.00 | 0.00 | 0.00 | 89 | 1015.8 |
| 20260508125636 | 16 | 125 | 3.2 | 6.4 | 0.00 | 0.00 | 0.00 | 89 | 1015.8 |
| 20260508125117 | 16 | 103 | 4.8 | 6.4 | 0.00 | 0.00 | 0.00 | 89 | 1015.7 |
| 20260508124617 | 16 | 125 | 4.8 | 4.8 | 0.00 | 0.00 | 0.00 | 89 | 1015.7 |
| 20260508124116 | 16 | 170 | 3.2 | 4.8 | 0.00 | 0.00 | 0.00 | 89 | 1015.7 |
| 20260508123616 | 16 | 125 | 1.6 | 3.2 | 0.00 | 0.00 | 0.00 | 89 | 1015.8 |
| 20260508123116 | 16 | 125 | 3.2 | 6.4 | 0.00 | 0.00 | 0.00 | 89 | 1015.7 |
| 20260508122636 | 16 | 125 | 6.4 | 9.7 | 0.00 | 0.00 | 0.00 | 89 | 1015.7 |
| 20260508122116 | 16 | 0.0 | 3.2 | 0.00 | 0.00 | 0.00 | 89 | 1015.7 | |
| 20260508121616 | 16 | 103 | 1.6 | 3.2 | 0.00 | 0.00 | 0.00 | 89 | 1015.5 |
| 20260508121116 | 16 | 125 | 3.2 | 6.4 | 0.00 | 0.00 | 0.00 | 89 | 1015.5 |
| 20260508120616 | 16 | 125 | 1.6 | 3.2 | 0.00 | 0.00 | 0.00 | 89 | 1015.5 |
| 20260508120116 | 16 | 148 | 1.6 | 3.2 | 0.00 | 0.00 | 0.00 | 89 | 1015.5 |
| 20260508115616 | 16 | 125 | 4.8 | 6.4 | 0.00 | 0.00 | 0.00 | 89 | 1015.5 |
| 20260508115116 | 16 | 0.0 | 1.6 | 0.00 | 0.00 | 0.00 | 89 | 1015.6 | |
| 20260508114616 | 16 | 148 | 1.6 | 3.2 | 0.00 | 0.00 | 0.00 | 89 | 1015.5 |
| 20260508114116 | 16 | 0.0 | 0.0 | 0.00 | 0.00 | 0.00 | 88 | 1015.4 | |
| 20260508113616 | 16 | 125 | 3.2 | 3.2 | 0.00 | 0.00 | 0.00 | 88 | 1015.5 |
| 20260508113116 | 16 | 148 | 4.8 | 11.3 | 0.00 | 0.00 | 0.00 | 89 | 1015.5 |
| 20260508112616 | 16 | 103 | 3.2 | 4.8 | 0.00 | 0.00 | 0.00 | 89 | 1015.5 |
| 20260508112116 | 16 | 80 | 3.2 | 3.2 | 0.00 | 0.00 | 0.00 | 89 | 1015.4 |
| 20260508111616 | 16 | 125 | 3.2 | 4.8 | 0.00 | 0.00 | 0.00 | 89 | 1015.4 |
| 20260508111116 | 16 | 148 | 3.2 | 4.8 | 0.00 | 0.00 | 0.00 | 89 | 1015.4 |
| 20260508110616 | 16 | 125 | 1.6 | 4.8 | 0.00 | 0.00 | 0.00 | 89 | 1015.4 |
| 20260508110116 | 16 | 148 | 3.2 | 6.4 | 0.00 | 0.00 | 0.00 | 89 | 1015.4 |
| 20260508105636 | 16 | 0.0 | 1.6 | 0.00 | 0.00 | 0.00 | 89 | 1015.4 | |
| 20260508105136 | 16 | 125 | 1.6 | 1.6 | 0.00 | 0.00 | 0.00 | 89 | 1015.4 |
| 20260508104616 | 16 | 125 | 1.6 | 3.2 | 0.00 | 0.00 | 0.00 | 89 | 1015.4 |
| 20260508104116 | 16 | 0.0 | 0.0 | 0.00 | 0.00 | 0.00 | 89 | 1015.4 | |
| 20260508103616 | 16 | 125 | 1.6 | 4.8 | 0.00 | 0.00 | 0.00 | 89 | 1015.4 |
| 20260508103116 | 16 | 148 | 3.2 | 9.7 | 0.00 | 0.00 | 0.00 | 89 | 1015.4 |
| 20260508102636 | 16 | 148 | 4.8 | 8.0 | 0.00 | 0.00 | 0.00 | 89 | 1015.4 |
| 20260508102136 | 16 | 0.0 | 1.6 | 0.00 | 0.00 | 0.00 | 89 | 1015.5 | |
| 20260508101616 | 16 | 0.0 | 1.6 | 0.00 | 0.00 | 0.00 | 89 | 1015.5 | |
| 20260508101136 | 16 | 103 | 1.6 | 3.2 | 0.00 | 0.00 | 0.00 | 89 | 1015.5 |
| 20260508100617 | 16 | 103 | 3.2 | 6.4 | 0.00 | 0.00 | 0.00 | 89 | 1015.5 |
| 20260508100116 | 16 | 148 | 3.2 | 6.4 | 0.00 | 0.00 | 0.00 | 89 | 1015.5 |
| 20260508095616 | 16 | 148 | 3.2 | 4.8 | 0.00 | 0.00 | 0.00 | 88 | 1015.5 |
| 20260508095116 | 16 | 148 | 1.6 | 1.6 | 0.00 | 0.00 | 0.00 | 88 | 1015.5 |
| 20260508094616 | 16 | 0.0 | 3.2 | 0.00 | 0.00 | 0.00 | 88 | 1015.5 | |
| 20260508094116 | 16 | 0.0 | 1.6 | 0.00 | 0.00 | 0.00 | 88 | 1015.6 | |
| 20260508093616 | 16 | 170 | 1.6 | 3.2 | 0.00 | 0.00 | 0.00 | 88 | 1015.5 |
| 20260508093116 | 16 | 103 | 3.2 | 4.8 | 0.00 | 0.00 | 0.00 | 88 | 1015.5 |
| 20260508092616 | 16 | 0.0 | 1.6 | 0.00 | 0.00 | 0.00 | 87 | 1015.5 | |
| 20260508092116 | 16 | 170 | 1.6 | 3.2 | 0.00 | 0.00 | 0.00 | 87 | 1015.6 |
| 20260508091636 | 15 | 125 | 1.6 | 3.2 | 0.00 | 0.00 | 0.00 | 87 | 1015.6 |
| 20260508091116 | 15 | 0.0 | 1.6 | 0.00 | 0.00 | 0.00 | 87 | 1015.7 | |
| 20260508090616 | 15 | 170 | 1.6 | 3.2 | 0.00 | 0.00 | 0.00 | 87 | 1015.7 |
| 20260508090116 | 15 | 0.0 | 1.6 | 0.00 | 0.00 | 0.00 | 88 | 1015.8 | |
| 20260508085636 | 15 | 125 | 4.8 | 6.4 | 0.00 | 0.00 | 0.00 | 88 | 1015.9 |
| 20260508085136 | 15 | 125 | 4.8 | 8.0 | 0.00 | 0.00 | 0.00 | 88 | 1015.8 |
| 20260508084616 | 15 | 0.0 | 1.6 | 0.00 | 0.00 | 0.00 | 88 | 1015.8 | |
| 20260508084116 | 15 | 148 | 3.2 | 6.4 | 0.00 | 0.00 | 0.00 | 88 | 1015.7 |
| 20260508083616 | 15 | 148 | 4.8 | 6.4 | 0.00 | 0.00 | 0.00 | 88 | 1015.8 |
| 20260508083136 | 15 | 148 | 3.2 | 6.4 | 0.00 | 0.00 | 0.00 | 88 | 1015.8 |
| 20260508082616 | 15 | 148 | 3.2 | 6.4 | 0.00 | 0.00 | 0.00 | 88 | 1015.9 |
| 20260508082116 | 15 | 125 | 4.8 | 9.7 | 0.00 | 0.00 | 0.00 | 88 | 1015.9 |
| 20260508081616 | 15 | 148 | 1.6 | 3.2 | 0.00 | 0.00 | 0.00 | 88 | 1016.0 |
| 20260508081116 | 15 | 125 | 4.8 | 6.4 | 0.00 | 0.00 | 0.00 | 88 | 1016.1 |
| 20260508080656 | 15 | 148 | 4.8 | 6.4 | 0.00 | 0.00 | 0.00 | 88 | 1016.0 |
| 20260508080116 | 15 | 148 | 1.6 | 3.2 | 0.00 | 0.00 | 0.00 | 88 | 1016.0 |
| 20260508075616 | 15 | 148 | 6.4 | 9.7 | 0.00 | 0.00 | 0.00 | 88 | 1016.1 |
| 20260508075116 | 16 | 148 | 4.8 | 9.7 | 0.00 | 0.00 | 0.00 | 88 | 1016.1 |
| 20260508074716 | 16 | 148 | 3.2 | 6.4 | 0.00 | 0.00 | 0.00 | 88 | 1016.1 |
| 20260508074116 | 16 | 148 | 3.2 | 6.4 | 0.00 | 0.00 | 0.00 | 88 | 1016.0 |
| 20260508073616 | 16 | 125 | 1.6 | 3.2 | 0.00 | 0.00 | 0.00 | 88 | 1016.0 |
| 20260508073156 | 16 | 148 | 3.2 | 3.2 | 0.00 | 0.00 | 0.00 | 88 | 1016.0 |
| 20260508072616 | 16 | 148 | 1.6 | 1.6 | 0.00 | 0.00 | 0.00 | 88 | 1016.1 |
| 20260508072116 | 16 | 125 | 1.6 | 3.2 | 0.00 | 0.00 | 0.00 | 88 | 1016.1 |
| 20260508071616 | 16 | 125 | 1.6 | 3.2 | 0.00 | 0.00 | 0.00 | 88 | 1016.1 |
| 20260508071136 | 16 | 148 | 1.6 | 1.6 | 0.00 | 0.00 | 0.00 | 88 | 1016.1 |
| 20260508070615 | 16 | 0.0 | 1.6 | 0.00 | 0.00 | 0.00 | 88 | 1016.0 | |
| 20260508070116 | 16 | 0.0 | 0.0 | 0.00 | 0.00 | 0.00 | 88 | 1016.0 | |
| 20260508065736 | 16 | 0.0 | 0.0 | 0.00 | 0.00 | 0.00 | 87 | 1015.9 | |
| 20260508065116 | 16 | 0.0 | 0.0 | 0.00 | 0.00 | 0.00 | 87 | 1016.0 | |
| 20260508064616 | 16 | 0.0 | 0.0 | 0.00 | 0.00 | 0.00 | 86 | 1016.0 | |
| 20260508064116 | 16 | 0.0 | 0.0 | 0.00 | 0.00 | 0.00 | 87 | 1015.9 | |
| 20260508063616 | 16 | 125 | 1.6 | 3.2 | 0.00 | 0.00 | 0.00 | 87 | 1015.9 |
| 20260508063156 | 16 | 0.0 | 1.6 | 0.00 | 0.00 | 0.00 | 88 | 1015.8 | |
| 20260508062616 | 16 | 0.0 | 1.6 | 0.00 | 0.00 | 0.00 | 88 | 1015.8 | |
| 20260508062116 | 15 | 0.0 | 0.0 | 0.00 | 0.00 | 0.00 | 87 | 1015.8 | |
| 20260508061616 | 15 | 0.0 | 0.0 | 0.00 | 0.00 | 0.00 | 87 | 1015.8 | |
| 20260508061116 | 16 | 0.0 | 0.0 | 0.00 | 0.00 | 0.00 | 86 | 1015.8 | |
| 20260508060616 | 16 | 0.0 | 0.0 | 0.00 | 0.00 | 0.00 | 86 | 1015.8 | |
| 20260508060116 | 16 | 0.0 | 0.0 | 0.00 | 0.00 | 0.00 | 86 | 1015.8 | |
| 20260508055616 | 16 | 0.0 | 0.0 | 0.00 | 0.00 | 0.00 | 86 | 1015.8 | |
| 20260508055116 | 16 | 0.0 | 0.0 | 0.00 | 0.00 | 0.00 | 86 | 1015.8 | |
| 20260508054616 | 16 | 0.0 | 0.0 | 0.00 | 0.00 | 0.00 | 86 | 1015.8 | |
| 20260508054116 | 16 | 0.0 | 0.0 | 0.00 | 0.00 | 0.00 | 86 | 1015.8 | |
| 20260508053636 | 16 | 0.0 | 0.0 | 0.00 | 0.00 | 0.00 | 85 | 1015.8 | |
| 20260508053116 | 16 | 0.0 | 0.0 | 0.00 | 0.00 | 0.00 | 85 | 1015.8 | |
| 20260508052616 | 16 | 0.0 | 0.0 | 0.00 | 0.00 | 0.00 | 85 | 1015.9 | |
| 20260508052116 | 16 | 260 | 1.6 | 1.6 | 0.00 | 0.00 | 0.00 | 85 | 1015.9 |
| 20260508051616 | 16 | 0.0 | 1.6 | 0.00 | 0.00 | 0.00 | 85 | 1015.9 | |
| 20260508051116 | 16 | 0.0 | 0.0 | 0.00 | 0.00 | 0.00 | 84 | 1015.8 | |
| 20260508050616 | 16 | 0.0 | 1.6 | 0.00 | 0.00 | 0.00 | 84 | 1015.8 | |
| 20260508050116 | 16 | 0.0 | 0.0 | 0.00 | 0.00 | 0.00 | 84 | 1015.8 | |
| 20260508045636 | 16 | 0.0 | 0.0 | 0.00 | 0.00 | 0.00 | 83 | 1015.8 | |
| 20260508045116 | 16 | 0.0 | 0.0 | 0.00 | 0.00 | 0.00 | 83 | 1015.7 | |
| 20260508044636 | 16 | 0.0 | 1.6 | 0.00 | 0.00 | 0.00 | 83 | 1015.7 | |
| 20260508044116 | 16 | 260 | 1.6 | 3.2 | 0.00 | 0.00 | 0.00 | 83 | 1015.7 |
| 20260508043616 | 16 | 0.0 | 1.6 | 0.00 | 0.00 | 0.00 | 83 | 1015.6 | |
| 20260508043116 | 16 | 260 | 1.6 | 1.6 | 0.00 | 0.00 | 0.00 | 83 | 1015.6 |
| 20260508042616 | 16 | 0.0 | 0.0 | 0.00 | 0.00 | 0.00 | 83 | 1015.6 | |
| 20260508042116 | 16 | 0.0 | 0.0 | 0.00 | 0.00 | 0.00 | 83 | 1015.4 | |
| 20260508041616 | 16 | 0.0 | 0.0 | 0.00 | 0.00 | 0.00 | 82 | 1015.3 | |
| 20260508041116 | 16 | 0.0 | 0.0 | 0.00 | 0.00 | 0.00 | 82 | 1015.2 | |
| 20260508040616 | 16 | 0.0 | 0.0 | 0.00 | 0.00 | 0.00 | 82 | 1015.1 | |
| 20260508040116 | 16 | 260 | 1.6 | 3.2 | 0.00 | 0.00 | 0.00 | 82 | 1015.0 |
| 20260508035616 | 16 | 283 | 1.6 | 1.6 | 0.00 | 0.00 | 0.00 | 82 | 1015.1 |
| 20260508035116 | 17 | 283 | 3.2 | 3.2 | 0.00 | 0.00 | 0.00 | 82 | 1015.0 |
| 20260508034616 | 17 | 350 | 1.6 | 1.6 | 0.00 | 0.00 | 0.00 | 82 | 1014.9 |
| 20260508034116 | 17 | 305 | 1.6 | 3.2 | 0.00 | 0.00 | 0.00 | 82 | 1014.8 |
| 20260508033616 | 17 | 283 | 4.8 | 6.4 | 0.00 | 0.00 | 0.00 | 82 | 1014.8 |
| 20260508033116 | 17 | 260 | 4.8 | 6.4 | 0.00 | 0.00 | 0.00 | 82 | 1014.7 |
| 20260508032636 | 17 | 283 | 6.4 | 9.7 | 0.00 | 0.00 | 0.00 | 82 | 1014.7 |
| 20260508032116 | 17 | 305 | 4.8 | 9.7 | 0.00 | 0.00 | 0.00 | 82 | 1014.6 |
| 20260508031616 | 17 | 305 | 6.4 | 11.3 | 0.00 | 0.00 | 0.00 | 83 | 1014.5 |
| 20260508031136 | 17 | 283 | 6.4 | 8.0 | 0.00 | 0.00 | 0.00 | 83 | 1014.4 |
| 20260508030616 | 17 | 283 | 6.4 | 9.7 | 0.00 | 0.00 | 0.00 | 83 | 1014.4 |
| 20260508030116 | 17 | 305 | 4.8 | 6.4 | 0.00 | 0.00 | 0.00 | 83 | 1014.4 |
| 20260508025616 | 17 | 283 | 6.4 | 8.0 | 0.00 | 0.00 | 0.00 | 82 | 1014.3 |
| 20260508025116 | 17 | 305 | 3.2 | 6.4 | 0.00 | 0.00 | 0.00 | 82 | 1014.2 |
| 20260508024616 | 17 | 305 | 3.2 | 6.4 | 0.00 | 0.00 | 0.00 | 81 | 1014.1 |
| 20260508024116 | 17 | 283 | 4.8 | 8.0 | 0.00 | 0.00 | 0.00 | 80 | 1014.1 |
| 20260508023616 | 18 | 283 | 8.0 | 12.9 | 0.00 | 0.00 | 0.00 | 79 | 1014.0 |
| 20260508023136 | 18 | 305 | 4.8 | 12.9 | 0.00 | 0.00 | 0.00 | 78 | 1013.9 |
| 20260508022616 | 18 | 305 | 6.4 | 9.7 | 0.00 | 0.00 | 0.00 | 77 | 1013.9 |
| 20260508022136 | 18 | 283 | 4.8 | 6.4 | 0.00 | 0.00 | 0.00 | 77 | 1013.8 |
| 20260508021616 | 18 | 260 | 6.4 | 9.7 | 0.00 | 0.00 | 0.00 | 76 | 1013.8 |
| 20260508021116 | 18 | 283 | 6.4 | 9.7 | 0.00 | 0.00 | 0.00 | 75 | 1013.8 |
| 20260508020636 | 19 | 260 | 8.0 | 11.3 | 0.00 | 0.00 | 0.00 | 74 | 1013.7 |
| 20260508020115 | 19 | 283 | 4.8 | 6.4 | 0.00 | 0.00 | 0.00 | 73 | 1013.7 |
| 20260508015616 | 20 | 260 | 8.0 | 9.7 | 0.00 | 0.00 | 0.00 | 72 | 1013.6 |
| 20260508015136 | 20 | 260 | 8.0 | 9.7 | 0.00 | 0.00 | 0.00 | 72 | 1013.6 |
| 20260508014615 | 20 | 260 | 8.0 | 11.3 | 0.00 | 0.00 | 0.00 | 72 | 1013.6 |
| 20260508014136 | 20 | 283 | 8.0 | 11.3 | 0.00 | 0.00 | 0.00 | 71 | 1013.6 |
| 20260508013636 | 20 | 283 | 8.0 | 11.3 | 0.00 | 0.00 | 0.00 | 70 | 1013.5 |
| 20260508013156 | 20 | 260 | 8.0 | 11.3 | 0.00 | 0.00 | 0.00 | 70 | 1013.5 |
| 20260508012636 | 20 | 283 | 6.4 | 9.7 | 0.00 | 0.00 | 0.00 | 70 | 1013.5 |
| 20260508012136 | 20 | 305 | 11.3 | 17.7 | 0.00 | 0.00 | 0.00 | 69 | 1013.5 |
| 20260508011615 | 20 | 283 | 11.3 | 17.7 | 0.00 | 0.00 | 0.00 | 68 | 1013.5 |
| 20260508011115 | 20 | 283 | 9.7 | 14.5 | 0.00 | 0.00 | 0.00 | 69 | 1013.5 |
| 20260508010616 | 20 | 305 | 11.3 | 16.1 | 0.00 | 0.00 | 0.00 | 68 | 1013.5 |
| 20260508010116 | 21 | 283 | 12.9 | 19.3 | 0.00 | 0.00 | 0.00 | 68 | 1013.5 |
| 20260508005615 | 21 | 283 | 11.3 | 17.7 | 0.00 | 0.00 | 0.00 | 67 | 1013.5 |
| 20260508005116 | 21 | 260 | 6.4 | 9.7 | 0.00 | 0.00 | 0.00 | 68 | 1013.6 |
| 20260508004615 | 21 | 305 | 9.7 | 14.5 | 0.00 | 0.00 | 0.00 | 66 | 1013.5 |
| 20260508004116 | 21 | 305 | 8.0 | 16.1 | 0.00 | 0.00 | 0.00 | 66 | 1013.4 |
| 20260508003615 | 21 | 305 | 9.7 | 14.5 | 0.00 | 0.00 | 0.00 | 67 | 1013.4 |
| 20260508003115 | 21 | 260 | 11.3 | 16.1 | 0.00 | 0.00 | 0.00 | 66 | 1013.4 |
| 20260508002616 | 21 | 260 | 9.7 | 14.5 | 0.00 | 0.00 | 0.00 | 67 | 1013.4 |